Time;durP1;ratioP1;P1;durP2;ratioP2;P2;SDS_P1;SDS_P2;PMS_P1;PMS_P2;Temp;Humidity;BMP_temperature;BMP_pressure;BME280_temperature;BME280_humidity;BME280_pressure;Samples;Min_cycle;Max_cycle;Signal;HPM_P1;HPM_P2
2022/09/23 00:00:26;;;;;;;;;17.75;17.75;;;;;;;;5077263;28;45391;-73
2022/09/23 00:02:51;;;;;;;;;17.00;17.00;;;;;;;;5077423;28;45425;-74
2022/09/23 00:05:17;;;;;;;;;21.25;21.25;;;;;;;;5077784;28;45283;-75
2022/09/23 00:07:42;;;;;;;;;24.25;24.25;;;;;;;;5074290;28;46940;-74
2022/09/23 00:10:07;;;;;;;;;23.25;21.25;;;;;;;;5075654;28;46447;-74
2022/09/23 00:12:32;;;;;;;;;16.75;16.00;;;;;;;;5075141;28;45445;-75
2022/09/23 00:14:58;;;;;;;;;22.75;22.75;;;;;;;;5073864;28;45411;-76
2022/09/23 00:17:23;;;;;;;;;20.00;20.00;;;;;;;;5066823;28;45321;-73
2022/09/23 00:19:48;;;;;;;;;20.75;18.75;;;;;;;;5062637;28;46108;-74
2022/09/23 00:22:14;;;;;;;;;18.00;17.50;;;;;;;;5039311;28;45428;-72
2022/09/23 00:24:39;;;;;;;;;19.25;19.25;;;;;;;;5076995;28;45404;-74
2022/09/23 00:27:04;;;;;;;;;17.50;17.50;;;;;;;;5076120;28;45281;-74
2022/09/23 00:29:30;;;;;;;;;17.25;17.25;;;;;;;;5076421;28;46260;-73
2022/09/23 00:31:55;;;;;;;;;18.75;18.75;;;;;;;;5076526;28;45437;-73
2022/09/23 00:34:21;;;;;;;;;15.75;15.75;;;;;;;;5076777;28;45343;-73
2022/09/23 00:36:46;;;;;;;;;16.25;16.25;;;;;;;;5076923;28;45240;-73
2022/09/23 00:39:11;;;;;;;;;15.50;15.50;;;;;;;;5076585;28;46357;-74
2022/09/23 00:41:36;;;;;;;;;18.50;18.50;;;;;;;;5076381;28;45330;-74
2022/09/23 00:44:22;;;;;;;;;17.75;17.75;;;;;;;;5076456;28;45251;-75
2022/09/23 00:46:47;;;;;;;;;22.25;22.00;;;;;;;;5059341;28;45327;-74
2022/09/23 00:49:18;;;;;;;;;19.00;18.25;;;;;;;;5076427;28;45417;-76
2022/09/23 00:51:47;;;;;;;;;16.75;16.75;;;;;;;;5057827;28;45518;-76
2022/09/23 00:54:13;;;;;;;;;16.25;16.25;;;;;;;;5076035;28;45345;-75
2022/09/23 00:56:39;;;;;;;;;17.25;17.25;;;;;;;;5076421;28;45510;-74
2022/09/23 00:59:05;;;;;;;;;17.25;17.25;;;;;;;;5076137;28;45599;-75
2022/09/23 01:01:30;;;;;;;;;16.50;16.50;;;;;;;;5075975;28;45355;-76
2022/09/23 01:03:56;;;;;;;;;17.00;17.00;;;;;;;;5076587;28;45341;-76
2022/09/23 01:06:21;;;;;;;;;15.75;15.75;;;;;;;;5077603;28;45397;-73
2022/09/23 01:08:47;;;;;;;;;17.25;17.25;;;;;;;;5076222;28;45409;-74
2022/09/23 01:11:22;;;;;;;;;16.00;16.00;;;;;;;;5057477;28;45282;-75
2022/09/23 01:13:53;;;;;;;;;17.00;17.00;;;;;;;;5076290;28;45344;-74
2022/09/23 01:16:33;;;;;;;;;16.50;16.50;;;;;;;;5075294;28;45574;-73
2022/09/23 01:18:58;;;;;;;;;16.75;16.75;;;;;;;;5074326;28;46602;-74
2022/09/23 01:21:23;;;;;;;;;17.50;17.50;;;;;;;;5075383;28;45448;-74
2022/09/23 01:24:07;;;;;;;;;18.25;18.25;;;;;;;;5077104;28;45636;-73
2022/09/23 01:26:50;;;;;;;;;18.25;17.50;;;;;;;;5075347;28;45430;-75
2022/09/23 01:29:16;;;;;;;;;19.00;19.00;;;;;;;;5072207;28;46635;-75
2022/09/23 01:31:46;;;;;;;;;18.50;18.50;;;;;;;;5073382;28;45452;-75
2022/09/23 01:34:23;;;;;;;;;16.75;16.75;;;;;;;;5076581;28;45351;-74
2022/09/23 01:37:01;;;;;;;;;18.00;18.00;;;;;;;;5056964;28;45557;-73
2022/09/23 01:39:55;;;;;;;;;16.25;16.25;;;;;;;;5073324;28;45672;-75
2022/09/23 01:42:31;;;;;;;;;20.25;20.25;;;;;;;;5060845;28;45548;-74
2022/09/23 01:44:59;;;;;;;;;17.00;17.00;;;;;;;;5037618;28;45332;-75
2022/09/23 01:47:38;;;;;;;;;15.50;15.50;;;;;;;;5062734;28;45387;-75
2022/09/23 01:50:54;;;;;;;;;16.50;16.25;;;;;;;;5075468;28;46513;-75
2022/09/23 01:52:52;;;;;;;;;22.50;22.50;;;;;;;;5075308;28;45541;-74
2022/09/23 01:55:30;;;;;;;;;19.25;19.25;;;;;;;;5075570;28;45457;-75
2022/09/23 01:58:03;;;;;;;;;17.25;17.00;;;;;;;;5075766;28;45254;-74
2022/09/23 02:00:33;;;;;;;;;18.00;17.75;;;;;;;;5075212;28;46713;-73
2022/09/23 02:03:03;;;;;;;;;35.25;31.75;;;;;;;;5074826;28;45402;-75
2022/09/23 02:05:32;;;;;;;;;19.25;19.25;;;;;;;;5074988;28;45292;-73
2022/09/23 02:08:00;;;;;;;;;18.75;18.75;;;;;;;;5076045;28;45360;-74
2022/09/23 02:10:31;;;;;;;;;17.50;15.75;;;;;;;;5074881;28;46645;-74
2022/09/23 02:13:01;;;;;;;;;17.25;17.25;;;;;;;;5075314;28;45312;-75
2022/09/23 02:15:31;;;;;;;;;20.25;20.25;;;;;;;;5075266;28;45448;-75
2022/09/23 02:18:08;;;;;;;;;18.75;18.75;;;;;;;;5075875;28;45233;-74
2022/09/23 02:20:38;;;;;;;;;18.75;18.75;;;;;;;;5075585;28;45539;-75
2022/09/23 02:23:06;;;;;;;;;20.25;20.25;;;;;;;;5075006;28;45455;-73
2022/09/23 02:25:54;;;;;;;;;21.50;21.50;;;;;;;;5075073;28;45289;-73
2022/09/23 02:28:29;;;;;;;;;18.00;18.00;;;;;;;;5055476;28;45371;-74
2022/09/23 02:31:02;;;;;;;;;20.75;20.00;;;;;;;;5075259;28;46178;-72
2022/09/23 02:33:35;;;;;;;;;19.50;18.50;;;;;;;;5056743;28;45186;-73
2022/09/23 02:36:24;;;;;;;;;21.25;21.25;;;;;;;;5056128;28;45286;-73
2022/09/23 02:38:56;;;;;;;;;29.00;29.00;;;;;;;;5036676;28;45342;-72
2022/09/23 02:41:33;;;;;;;;;18.75;18.50;;;;;;;;5073887;27;45290;-73
2022/09/23 02:44:02;;;;;;;;;19.25;19.25;;;;;;;;5073466;28;45396;-73
2022/09/23 02:46:28;;;;;;;;;18.75;18.25;;;;;;;;5074624;28;45352;-72
2022/09/23 02:49:03;;;;;;;;;18.50;18.50;;;;;;;;5054150;28;45632;-74
2022/09/23 02:51:33;;;;;;;;;14.00;14.00;;;;;;;;5057705;28;48245;-73
2022/09/23 02:54:02;;;;;;;;;19.50;19.50;;;;;;;;5076438;28;45402;-73
2022/09/23 02:56:27;;;;;;;;;21.00;19.75;;;;;;;;5077201;28;45440;-74
2022/09/23 02:58:53;;;;;;;;;17.75;17.75;;;;;;;;5067459;27;45563;-74
2022/09/23 03:01:38;;;;;;;;;27.50;25.75;;;;;;;;5070299;28;46507;-77
2022/09/23 03:04:05;;;;;;;;;20.50;20.50;;;;;;;;5078164;28;45313;-73
2022/09/23 03:06:36;;;;;;;;;17.25;17.25;;;;;;;;5078112;28;45443;-73
2022/09/23 03:09:07;;;;;;;;;13.25;13.25;;;;;;;;5078022;28;45332;-73
2022/09/23 03:11:36;;;;;;;;;15.00;15.00;;;;;;;;5077460;28;46816;-73
2022/09/23 03:14:16;;;;;;;;;18.50;18.50;;;;;;;;5059236;28;45349;-75
2022/09/23 03:16:55;;;;;;;;;17.00;17.00;;;;;;;;5059396;28;45404;-73
2022/09/23 03:19:24;;;;;;;;;15.00;15.00;;;;;;;;5058853;28;45569;-72
2022/09/23 03:21:52;;;;;;;;;17.75;17.75;;;;;;;;5077405;28;45546;-72
2022/09/23 03:24:19;;;;;;;;;17.75;17.50;;;;;;;;5058970;28;45350;-73
2022/09/23 03:26:46;;;;;;;;;16.00;16.00;;;;;;;;5077333;28;45487;-72
2022/09/23 03:29:12;;;;;;;;;17.50;17.00;;;;;;;;5077771;28;45379;-71
2022/09/23 03:31:38;;;;;;;;;16.25;16.25;;;;;;;;5076952;28;46407;-72
2022/09/23 03:34:07;;;;;;;;;18.00;18.00;;;;;;;;5077253;28;45284;-73
2022/09/23 03:36:52;;;;;;;;;18.25;17.75;;;;;;;;5080382;28;45307;-73
2022/09/23 03:39:26;;;;;;;;;16.50;16.00;;;;;;;;5067029;28;44942;-73
2022/09/23 03:41:54;;;;;;;;;17.25;17.25;;;;;;;;5081334;28;45403;-72
2022/09/23 03:44:19;;;;;;;;;16.75;16.75;;;;;;;;5078266;28;45386;-75
2022/09/23 03:46:48;;;;;;;;;20.75;20.75;;;;;;;;5079330;28;45322;-72
2022/09/23 03:49:26;;;;;;;;;18.00;18.00;;;;;;;;5076149;28;45368;-73
2022/09/23 03:51:51;;;;;;;;;15.00;15.00;;;;;;;;5075141;28;45567;-74
2022/09/23 03:54:19;;;;;;;;;16.75;16.75;;;;;;;;5076086;28;45421;-74
2022/09/23 03:56:46;;;;;;;;;16.25;16.25;;;;;;;;5076566;28;45647;-72
2022/09/23 03:59:13;;;;;;;;;16.50;16.50;;;;;;;;5077836;28;45363;-75
2022/09/23 04:01:40;;;;;;;;;16.50;16.25;;;;;;;;5074103;28;45499;-73
2022/09/23 04:04:06;;;;;;;;;16.50;16.00;;;;;;;;5076573;28;45370;-72
2022/09/23 04:06:31;;;;;;;;;18.00;18.00;;;;;;;;5076301;28;45308;-75
2022/09/23 04:08:57;;;;;;;;;13.50;13.50;;;;;;;;5076149;28;45176;-74
2022/09/23 04:11:22;;;;;;;;;18.00;18.00;;;;;;;;5076555;28;45438;-74
2022/09/23 04:13:47;;;;;;;;;19.00;19.00;;;;;;;;5075916;28;45272;-73
2022/09/23 04:16:12;;;;;;;;;18.25;17.50;;;;;;;;5053236;28;45459;-75
2022/09/23 04:18:38;;;;;;;;;20.25;20.25;;;;;;;;5074462;28;45541;-75
2022/09/23 04:21:03;;;;;;;;;19.50;19.50;;;;;;;;5076534;28;46504;-76
2022/09/23 04:23:28;;;;;;;;;19.00;19.00;;;;;;;;5075459;28;45248;-74
2022/09/23 04:25:54;;;;;;;;;16.25;16.25;;;;;;;;5076246;28;45445;-74
2022/09/23 04:28:19;;;;;;;;;18.00;18.00;;;;;;;;5075894;28;45369;-74
2022/09/23 04:30:46;;;;;;;;;14.75;14.75;;;;;;;;5058202;28;48149;-74
2022/09/23 04:33:12;;;;;;;;;15.00;15.00;;;;;;;;5076081;28;45399;-74
2022/09/23 04:35:38;;;;;;;;;17.00;17.00;;;;;;;;5070740;28;45300;-73
2022/09/23 04:38:06;;;;;;;;;16.50;16.50;;;;;;;;5056816;28;45534;-74
2022/09/23 04:40:32;;;;;;;;;17.00;17.00;;;;;;;;5069053;28;46353;-74
2022/09/23 04:42:57;;;;;;;;;16.75;16.75;;;;;;;;5076047;28;45369;-75
2022/09/23 04:45:22;;;;;;;;;16.75;16.75;;;;;;;;5076491;28;45303;-75
2022/09/23 04:47:47;;;;;;;;;15.75;15.75;;;;;;;;5058278;28;45667;-74
2022/09/23 04:50:13;;;;;;;;;14.00;14.00;;;;;;;;5076697;28;46459;-75
2022/09/23 04:52:38;;;;;;;;;17.00;17.00;;;;;;;;5076582;28;45443;-72
2022/09/23 04:55:03;;;;;;;;;16.00;16.00;;;;;;;;5058611;28;45663;-74
2022/09/23 04:57:29;;;;;;;;;15.25;15.25;;;;;;;;5076644;28;45511;-75
2022/09/23 04:59:55;;;;;;;;;17.00;17.00;;;;;;;;5075560;28;45501;-74
2022/09/23 05:02:20;;;;;;;;;14.50;14.50;;;;;;;;5076271;28;45346;-73
2022/09/23 05:04:46;;;;;;;;;14.75;14.75;;;;;;;;5073196;28;45330;-74
2022/09/23 05:07:11;;;;;;;;;15.00;15.00;;;;;;;;5057828;28;45680;-75
2022/09/23 05:09:37;;;;;;;;;15.75;15.75;;;;;;;;5077162;27;45792;-74
2022/09/23 05:12:03;;;;;;;;;20.50;20.50;;;;;;;;5076367;28;45505;-73
2022/09/23 05:14:28;;;;;;;;;17.50;17.50;;;;;;;;5041364;28;45403;-74
2022/09/23 05:16:53;;;;;;;;;16.00;16.00;;;;;;;;5064952;28;45448;-75
2022/09/23 05:19:18;;;;;;;;;14.50;14.50;;;;;;;;5057852;28;47085;-74
2022/09/23 05:21:43;;;;;;;;;15.25;15.25;;;;;;;;5076455;28;45339;-75
2022/09/23 05:24:10;;;;;;;;;12.00;12.00;;;;;;;;5076295;28;45311;-73
2022/09/23 05:26:36;;;;;;;;;14.00;14.00;;;;;;;;5076480;28;45237;-74
2022/09/23 05:29:01;;;;;;;;;15.25;15.00;;;;;;;;5075811;28;45299;-75
2022/09/23 05:31:27;;;;;;;;;17.00;15.75;;;;;;;;5058120;28;45266;-75
2022/09/23 05:33:56;;;;;;;;;15.75;15.75;;;;;;;;5076076;28;45467;-74
2022/09/23 05:36:22;;;;;;;;;15.50;15.50;;;;;;;;5057749;28;45543;-72
2022/09/23 05:38:48;;;;;;;;;17.25;17.25;;;;;;;;5082400;27;47449;-77
2022/09/23 05:41:14;;;;;;;;;19.50;18.75;;;;;;;;5055134;28;45356;-73
2022/09/23 05:43:40;;;;;;;;;18.75;17.00;;;;;;;;5055675;28;45480;-72
2022/09/23 05:46:05;;;;;;;;;24.25;24.25;;;;;;;;5055781;28;45175;-77
2022/09/23 05:48:31;;;;;;;;;23.25;23.25;;;;;;;;5055091;28;45356;-75
2022/09/23 05:50:56;;;;;;;;;19.00;19.00;;;;;;;;5064165;28;45245;-73
2022/09/23 05:53:22;;;;;;;;;21.50;21.50;;;;;;;;5075430;28;45233;-74
2022/09/23 05:55:47;;;;;;;;;19.00;19.00;;;;;;;;5075831;28;45610;-75
2022/09/23 05:58:12;;;;;;;;;22.75;22.75;;;;;;;;5075493;28;45436;-74
2022/09/23 06:00:41;;;;;;;;;20.00;19.75;;;;;;;;5058128;28;45904;-74
2022/09/23 06:03:11;;;;;;;;;29.75;28.25;;;;;;;;5075992;28;45371;-74
2022/09/23 06:05:37;;;;;;;;;22.25;22.25;;;;;;;;5075972;28;45492;-75
2022/09/23 06:08:02;;;;;;;;;20.25;19.50;;;;;;;;5074296;28;45455;-75
2022/09/23 06:10:27;;;;;;;;;21.50;21.50;;;;;;;;5074084;28;45403;-75
2022/09/23 06:12:52;;;;;;;;;24.25;24.25;;;;;;;;5074701;28;45442;-75
2022/09/23 06:15:18;;;;;;;;;24.25;23.25;;;;;;;;5076068;28;45324;-76
2022/09/23 06:17:43;;;;;;;;;22.50;22.50;;;;;;;;5056270;28;47340;-73
2022/09/23 06:20:08;;;;;;;;;21.75;21.75;;;;;;;;5073424;28;45153;-72
2022/09/23 06:22:34;;;;;;;;;24.50;24.50;;;;;;;;5074214;28;45407;-74
2022/09/23 06:24:59;;;;;;;;;22.50;22.50;;;;;;;;5075916;28;45455;-74
2022/09/23 06:27:24;;;;;;;;;20.75;20.75;;;;;;;;5072698;28;46170;-74
2022/09/23 06:29:51;;;;;;;;;23.50;21.50;;;;;;;;5058217;28;45337;-74
2022/09/23 06:32:16;;;;;;;;;24.75;24.00;;;;;;;;5071227;28;45306;-74
2022/09/23 06:34:44;;;;;;;;;20.50;20.25;;;;;;;;5077799;28;45517;-75
2022/09/23 06:37:09;;;;;;;;;20.75;20.25;;;;;;;;5055136;28;47755;-75
2022/09/23 06:39:34;;;;;;;;;23.50;23.50;;;;;;;;5083379;28;45393;-75
2022/09/23 06:42:00;;;;;;;;;21.50;21.25;;;;;;;;5079250;28;45540;-77
2022/09/23 06:44:27;;;;;;;;;16.50;16.50;;;;;;;;5078940;28;45331;-71
2022/09/23 06:46:52;;;;;;;;;20.75;20.75;;;;;;;;5077403;28;46348;-75
2022/09/23 06:49:19;;;;;;;;;23.25;23.25;;;;;;;;5078141;28;45337;-72
2022/09/23 06:51:44;;;;;;;;;23.00;22.50;;;;;;;;5077115;28;45564;-70
2022/09/23 06:54:09;;;;;;;;;23.25;22.25;;;;;;;;5077943;28;45447;-71
2022/09/23 06:56:35;;;;;;;;;15.75;15.00;;;;;;;;5077669;28;46267;-71
2022/09/23 06:59:00;;;;;;;;;18.50;18.50;;;;;;;;5077615;28;45381;-70
2022/09/23 07:01:25;;;;;;;;;22.00;22.00;;;;;;;;5077790;28;45684;-70
2022/09/23 07:03:51;;;;;;;;;23.50;23.50;;;;;;;;5077886;28;45382;-71
2022/09/23 07:06:16;;;;;;;;;23.00;23.00;;;;;;;;5077416;28;46581;-69
2022/09/23 07:08:43;;;;;;;;;21.50;20.00;;;;;;;;5077893;28;45330;-71
2022/09/23 07:11:12;;;;;;;;;17.00;16.50;;;;;;;;5077662;28;45410;-70
2022/09/23 07:13:37;;;;;;;;;23.25;21.50;;;;;;;;5077760;28;45544;-68
2022/09/23 07:16:03;;;;;;;;;23.25;23.25;;;;;;;;5077463;28;46306;-72
2022/09/23 07:18:29;;;;;;;;;23.00;23.00;;;;;;;;5077597;28;45389;-70
2022/09/23 07:20:57;;;;;;;;;22.75;22.75;;;;;;;;5077564;28;45423;-70
2022/09/23 07:23:23;;;;;;;;;28.00;28.00;;;;;;;;5077900;28;45517;-70
2022/09/23 07:25:50;;;;;;;;;39.25;35.00;;;;;;;;5077305;28;46409;-70
2022/09/23 07:28:16;;;;;;;;;27.75;27.75;;;;;;;;5077543;28;45425;-71
2022/09/23 07:30:42;;;;;;;;;24.00;24.00;;;;;;;;5077550;28;45296;-70
2022/09/23 07:33:08;;;;;;;;;25.50;25.00;;;;;;;;5077752;28;45269;-72
2022/09/23 07:35:37;;;;;;;;;25.25;25.25;;;;;;;;5076386;28;45526;-71
2022/09/23 07:38:02;;;;;;;;;25.50;25.50;;;;;;;;5076801;28;45344;-71
2022/09/23 07:40:27;;;;;;;;;40.00;35.75;;;;;;;;5077124;28;45372;-69
2022/09/23 07:42:54;;;;;;;;;28.25;28.25;;;;;;;;5077205;28;45328;-71
2022/09/23 07:45:21;;;;;;;;;28.00;28.00;;;;;;;;5077397;28;46202;-71
2022/09/23 07:47:47;;;;;;;;;25.00;25.00;;;;;;;;5077641;28;45297;-71
2022/09/23 07:50:13;;;;;;;;;24.75;24.75;;;;;;;;5058332;28;45531;-71
2022/09/23 07:52:38;;;;;;;;;53.00;41.75;;;;;;;;5076985;28;45484;-71
2022/09/23 07:55:04;;;;;;;;;29.50;29.50;;;;;;;;5058246;28;46231;-71
2022/09/23 07:57:30;;;;;;;;;32.00;31.00;;;;;;;;5075334;28;45554;-70
2022/09/23 07:59:55;;;;;;;;;27.50;27.00;;;;;;;;5074892;28;45462;-71
2022/09/23 08:02:20;;;;;;;;;27.75;27.25;;;;;;;;5075064;28;45406;-71
2022/09/23 08:04:45;;;;;;;;;27.50;27.50;;;;;;;;5074673;28;46513;-70
2022/09/23 08:07:11;;;;;;;;;26.75;26.75;;;;;;;;5074472;28;45516;-71
2022/09/23 08:09:40;;;;;;;;;25.00;25.00;;;;;;;;5074188;28;45510;-72
2022/09/23 08:12:05;;;;;;;;;23.00;23.00;;;;;;;;5056868;28;45504;-70
2022/09/23 08:14:31;;;;;;;;;24.25;24.25;;;;;;;;5076642;28;45354;-70
2022/09/23 08:16:56;;;;;;;;;37.25;34.00;;;;;;;;5076430;28;45355;-70
2022/09/23 08:19:21;;;;;;;;;27.00;27.00;;;;;;;;5076165;28;45417;-71
2022/09/23 08:21:48;;;;;;;;;26.75;26.75;;;;;;;;5077069;28;45263;-71
2022/09/23 08:24:15;;;;;;;;;11.00;11.00;;;;;;;;5076730;28;45711;-71
2022/09/23 08:26:41;;;;;;;;;26.75;25.00;;;;;;;;5076505;28;45366;-72
2022/09/23 08:29:08;;;;;;;;;30.25;29.25;;;;;;;;5076408;28;45447;-71
2022/09/23 08:31:34;;;;;;;;;28.25;28.25;;;;;;;;5077181;28;45374;-70
2022/09/23 08:33:59;;;;;;;;;27.00;27.00;;;;;;;;5076731;28;45913;-72
2022/09/23 08:36:25;;;;;;;;;28.75;27.00;;;;;;;;5076392;28;45216;-70
2022/09/23 08:38:50;;;;;;;;;30.25;29.25;;;;;;;;5076966;28;45262;-71
2022/09/23 08:41:18;;;;;;;;;22.75;22.75;;;;;;;;5076630;28;45205;-70
2022/09/23 08:43:46;;;;;;;;;37.25;34.25;;;;;;;;5076509;28;45801;-72
2022/09/23 08:46:16;;;;;;;;;27.00;27.00;;;;;;;;5057640;28;45403;-71
2022/09/23 08:48:42;;;;;;;;;25.25;24.25;;;;;;;;5057717;28;45399;-72
2022/09/23 08:51:16;;;;;;;;;23.25;23.25;;;;;;;;5076718;28;45457;-70
2022/09/23 08:53:42;;;;;;;;;24.50;24.50;;;;;;;;5076219;28;45408;-72
2022/09/23 08:56:16;;;;;;;;;23.75;23.75;;;;;;;;5075881;28;45362;-72
2022/09/23 08:58:48;;;;;;;;;31.50;30.50;;;;;;;;5075914;28;45224;-72
2022/09/23 09:01:18;;;;;;;;;31.75;29.25;;;;;;;;5076691;28;45396;-73
2022/09/23 09:03:49;;;;;;;;;34.75;32.75;;;;;;;;5076309;28;45318;-72
2022/09/23 09:06:17;;;;;;;;;28.50;28.25;;;;;;;;5076060;28;45214;-72
2022/09/23 09:08:43;;;;;;;;;35.00;32.50;;;;;;;;5076112;28;45352;-71
2022/09/23 09:11:11;;;;;;;;;27.25;27.25;;;;;;;;5076200;28;45461;-72
2022/09/23 09:13:43;;;;;;;;;32.00;29.75;;;;;;;;5075796;28;45340;-71
2022/09/23 09:16:18;;;;;;;;;26.50;26.50;;;;;;;;5075722;28;45271;-72
2022/09/23 09:18:54;;;;;;;;;30.00;29.50;;;;;;;;5076179;28;45269;-71
2022/09/23 09:21:27;;;;;;;;;31.75;30.25;;;;;;;;5076712;28;45466;-72
2022/09/23 09:23:56;;;;;;;;;20.75;20.75;;;;;;;;5075880;28;45339;-71
2022/09/23 09:26:42;;;;;;;;;28.50;28.50;;;;;;;;5076070;28;45371;-73
2022/09/23 09:29:13;;;;;;;;;30.00;29.00;;;;;;;;5074905;27;45388;-71
2022/09/23 09:31:41;;;;;;;;;27.75;27.75;;;;;;;;5075820;28;45530;-72
2022/09/23 09:34:15;;;;;;;;;26.00;26.00;;;;;;;;5074815;28;45421;-70
2022/09/23 09:37:04;;;;;;;;;32.50;30.50;;;;;;;;5075318;28;45373;-71
2022/09/23 09:39:29;;;;;;;;;24.25;24.25;;;;;;;;5075475;28;45670;-71
2022/09/23 09:41:58;;;;;;;;;24.50;24.50;;;;;;;;5075265;28;45318;-70
2022/09/23 09:44:23;;;;;;;;;27.25;27.25;;;;;;;;5074923;28;45435;-72
2022/09/23 09:46:59;;;;;;;;;25.00;25.00;;;;;;;;5074667;28;45383;-71
2022/09/23 09:49:24;;;;;;;;;25.75;25.75;;;;;;;;5075163;28;45393;-73
2022/09/23 09:52:10;;;;;;;;;40.00;35.25;;;;;;;;5075309;28;45576;-72
2022/09/23 09:54:35;;;;;;;;;31.75;30.75;;;;;;;;5075009;28;46640;-72
2022/09/23 09:57:03;;;;;;;;;32.00;30.50;;;;;;;;5074979;28;45515;-73
2022/09/23 09:59:28;;;;;;;;;27.25;27.00;;;;;;;;5074010;28;45304;-73
2022/09/23 10:02:12;;;;;;;;;25.25;25.25;;;;;;;;5057103;28;45547;-73
2022/09/23 10:04:38;;;;;;;;;33.25;31.25;;;;;;;;5074887;28;45726;-72
2022/09/23 10:07:03;;;;;;;;;26.75;26.75;;;;;;;;5075147;28;45817;-73
2022/09/23 10:09:32;;;;;;;;;58.50;48.50;;;;;;;;5074984;28;45617;-71
2022/09/23 10:12:14;;;;;;;;;33.00;31.25;;;;;;;;5075509;28;45328;-71
2022/09/23 10:14:40;;;;;;;;;27.00;27.00;;;;;;;;5056525;28;45411;-71
2022/09/23 10:17:06;;;;;;;;;30.00;29.00;;;;;;;;5074613;28;45252;-72
2022/09/23 10:19:34;;;;;;;;;34.00;31.00;;;;;;;;5074825;28;45433;-72
2022/09/23 10:22:03;;;;;;;;;35.25;31.75;;;;;;;;5056487;28;45435;-73
2022/09/23 10:24:31;;;;;;;;;28.75;28.50;;;;;;;;5056524;28;46459;-72
2022/09/23 10:27:07;;;;;;;;;40.25;34.75;;;;;;;;5075485;28;45233;-71
2022/09/23 10:29:32;;;;;;;;;30.50;29.50;;;;;;;;5074859;28;45440;-70
2022/09/23 10:32:13;;;;;;;;;59.50;49.00;;;;;;;;5057658;28;45549;-71
2022/09/23 10:34:41;;;;;;;;;29.50;29.00;;;;;;;;5075308;28;46475;-74
2022/09/23 10:37:13;;;;;;;;;31.00;30.25;;;;;;;;5075787;28;45417;-72
2022/09/23 10:47:57;;;;;;;;;33.50;31.00;;;;;;;;5074378;28;45358;-71
2022/09/23 10:50:25;;;;;;;;;33.75;31.75;;;;;;;;5056915;28;45243;-71
2022/09/23 10:52:57;;;;;;;;;33.00;30.75;;;;;;;;5075101;28;45392;-70
2022/09/23 10:55:43;;;;;;;;;35.25;32.00;;;;;;;;5056282;28;47902;-71
2022/09/23 10:58:16;;;;;;;;;29.75;29.00;;;;;;;;5038473;28;45978;-71
2022/09/23 11:01:00;;;;;;;;;36.00;33.00;;;;;;;;5074452;28;45260;-70
2022/09/23 11:03:32;;;;;;;;;33.00;30.75;;;;;;;;5074674;28;45254;-72
2022/09/23 11:06:12;;;;;;;;;35.00;32.25;;;;;;;;5074055;28;45583;-71
2022/09/23 11:08:49;;;;;;;;;34.50;32.00;;;;;;;;5055297;28;45237;-72
2022/09/23 11:11:14;;;;;;;;;38.50;32.75;;;;;;;;5075557;28;45353;-72
2022/09/23 11:13:59;;;;;;;;;34.75;32.00;;;;;;;;5077426;28;45398;-71
2022/09/23 11:16:40;;;;;;;;;26.25;26.25;;;;;;;;5059106;28;46983;-72
2022/09/23 11:19:32;;;;;;;;;27.00;27.00;;;;;;;;5076923;28;45339;-71
2022/09/23 11:21:58;;;;;;;;;35.00;31.25;;;;;;;;5059365;28;45380;-71
2022/09/23 11:24:30;;;;;;;;;37.50;33.75;;;;;;;;5077930;28;45352;-72
2022/09/23 11:27:21;;;;;;;;;30.25;29.00;;;;;;;;5078080;28;45361;-72
2022/09/23 11:30:13;;;;;;;;;35.25;32.00;;;;;;;;5075249;27;45402;-73
2022/09/23 11:33:17;;;;;;;;;33.50;31.00;;;;;;;;5075374;27;45632;-73
2022/09/23 11:35:48;;;;;;;;;32.00;28.75;;;;;;;;5035166;28;45374;-72
2022/09/23 11:38:14;;;;;;;;;27.25;27.25;;;;;;;;5034675;28;45339;-71
2022/09/23 11:40:41;;;;;;;;;28.00;28.00;;;;;;;;5055901;28;45415;-70
2022/09/23 11:43:14;;;;;;;;;29.00;28.00;;;;;;;;5077256;28;45624;-71
2022/09/23 11:46:00;;;;;;;;;30.00;29.00;;;;;;;;5077684;27;45614;-71
2022/09/23 11:48:34;;;;;;;;;31.00;30.00;;;;;;;;5075766;27;45687;-71
2022/09/23 11:51:13;;;;;;;;;36.00;32.75;;;;;;;;5077175;27;45439;-72
2022/09/23 11:53:46;;;;;;;;;25.25;25.25;;;;;;;;5058488;28;45340;-72
2022/09/23 11:56:25;;;;;;;;;23.00;23.00;;;;;;;;5058733;28;45343;-72
2022/09/23 11:59:10;;;;;;;;;29.50;28.75;;;;;;;;5044062;28;46045;-72
2022/09/23 12:01:44;;;;;;;;;24.50;22.25;;;;;;;;5044295;28;45431;-72
2022/09/23 12:04:12;;;;;;;;;27.75;27.25;;;;;;;;5055788;28;45397;-70
2022/09/23 12:06:40;;;;;;;;;24.00;24.00;;;;;;;;5056321;28;45236;-71
2022/09/23 12:09:21;;;;;;;;;22.50;21.75;;;;;;;;5055750;28;45391;-71
2022/09/23 12:11:57;;;;;;;;;23.75;23.75;;;;;;;;5056061;28;45370;-72
2022/09/23 12:14:31;;;;;;;;;19.50;19.50;;;;;;;;5056542;28;45245;-70
2022/09/23 12:17:09;;;;;;;;;27.00;27.00;;;;;;;;5056601;28;45360;-71
2022/09/23 12:19:41;;;;;;;;;18.00;17.00;;;;;;;;5055973;28;46595;-71
2022/09/23 12:22:24;;;;;;;;;18.00;18.00;;;;;;;;5055193;28;45382;-71
2022/09/23 12:25:11;;;;;;;;;17.00;17.00;;;;;;;;5053240;28;45681;-73
2022/09/23 12:27:42;;;;;;;;;14.75;14.50;;;;;;;;5056202;28;45323;-72
2022/09/23 12:30:16;;;;;;;;;11.75;11.75;;;;;;;;5055912;28;46707;-72
2022/09/23 12:32:42;;;;;;;;;14.75;14.75;;;;;;;;5055881;28;45400;-71
2022/09/23 12:35:25;;;;;;;;;9.50;9.50;;;;;;;;5056150;28;45339;-72
2022/09/23 12:37:51;;;;;;;;;6.00;6.00;;;;;;;;5056231;28;45313;-72
2022/09/23 12:40:22;;;;;;;;;13.25;13.25;;;;;;;;5055684;28;46198;-72
2022/09/23 12:42:48;;;;;;;;;10.50;10.50;;;;;;;;5037666;28;45170;-72
2022/09/23 12:45:23;;;;;;;;;15.00;15.00;;;;;;;;5055985;28;45359;-72
2022/09/23 12:47:48;;;;;;;;;11.25;11.25;;;;;;;;5055926;28;45296;-70
2022/09/23 12:50:33;;;;;;;;;12.25;12.25;;;;;;;;5055559;28;46436;-71
2022/09/23 12:53:18;;;;;;;;;13.25;13.25;;;;;;;;5056312;28;45415;-71
2022/09/23 12:55:45;;;;;;;;;24.75;24.75;;;;;;;;5055477;28;45485;-70
2022/09/23 12:58:29;;;;;;;;;15.50;15.50;;;;;;;;5055735;27;45646;-72
2022/09/23 13:01:18;;;;;;;;;18.75;18.25;;;;;;;;5055982;28;45612;-72
2022/09/23 13:06:38;;;;;;;;;17.00;17.00;;;;;;;;5056106;28;45262;-72
2022/09/23 13:09:06;;;;;;;;;14.00;14.00;;;;;;;;5038303;28;45245;-72
2022/09/23 13:11:32;;;;;;;;;16.00;16.00;;;;;;;;5055718;28;46377;-71
2022/09/23 13:14:00;;;;;;;;;11.00;11.00;;;;;;;;5055413;28;45301;-69
2022/09/23 13:16:31;;;;;;;;;13.50;13.25;;;;;;;;5055234;28;45423;-71
2022/09/23 13:19:26;;;;;;;;;14.00;14.00;;;;;;;;5055249;28;45390;-72
2022/09/23 13:22:00;;;;;;;;;18.75;18.75;;;;;;;;5054742;28;45420;-71
2022/09/23 13:24:28;;;;;;;;;10.25;10.25;;;;;;;;5055204;28;45245;-71
2022/09/23 13:26:56;;;;;;;;;17.50;16.75;;;;;;;;5055634;28;45162;-72
2022/09/23 13:29:24;;;;;;;;;16.50;16.50;;;;;;;;5037292;28;45408;-71
2022/09/23 13:31:50;;;;;;;;;9.25;9.25;;;;;;;;5054791;28;45856;-71
2022/09/23 13:34:18;;;;;;;;;9.25;9.25;;;;;;;;5054949;28;45249;-70
2022/09/23 13:36:44;;;;;;;;;7.75;7.75;;;;;;;;5055587;28;45387;-70
2022/09/23 13:39:14;;;;;;;;;7.50;7.50;;;;;;;;5055394;28;45470;-70
2022/09/23 13:41:41;;;;;;;;;8.75;8.75;;;;;;;;5054972;28;46279;-70
2022/09/23 13:44:13;;;;;;;;;8.00;8.00;;;;;;;;5055406;28;45253;-70
2022/09/23 13:46:44;;;;;;;;;13.00;13.00;;;;;;;;5036821;28;45435;-71
2022/09/23 13:49:23;;;;;;;;;13.25;13.25;;;;;;;;5055230;28;45453;-70
2022/09/23 13:51:49;;;;;;;;;11.75;11.75;;;;;;;;5055133;28;46676;-70
2022/09/23 13:54:32;;;;;;;;;10.00;10.00;;;;;;;;5055211;28;45267;-71
2022/09/23 13:56:57;;;;;;;;;10.50;10.50;;;;;;;;5054879;28;45346;-71
2022/09/23 13:59:26;;;;;;;;;11.50;11.50;;;;;;;;5036777;28;45446;-72
2022/09/23 14:02:04;;;;;;;;;13.25;13.25;;;;;;;;5055089;28;46196;-70
2022/09/23 14:04:30;;;;;;;;;11.00;11.00;;;;;;;;5054872;28;45349;-70
2022/09/23 14:06:55;;;;;;;;;21.75;21.75;;;;;;;;5054740;28;45743;-72
2022/09/23 14:09:23;;;;;;;;;11.00;11.00;;;;;;;;5055022;28;45506;-74
2022/09/23 14:11:49;;;;;;;;;10.00;10.00;;;;;;;;5054978;28;46951;-70
2022/09/23 14:14:14;;;;;;;;;21.75;21.50;;;;;;;;5054716;28;45372;-73
2022/09/23 14:16:40;;;;;;;;;11.00;11.00;;;;;;;;5056089;28;45171;-71
2022/09/23 14:19:08;;;;;;;;;10.50;10.50;;;;;;;;5056259;28;45490;-71
2022/09/23 14:21:35;;;;;;;;;9.25;9.25;;;;;;;;5054778;28;45418;-71
2022/09/23 14:24:09;;;;;;;;;14.00;13.00;;;;;;;;5055214;28;45353;-72
2022/09/23 14:26:35;;;;;;;;;14.25;14.25;;;;;;;;5055923;28;45332;-71
2022/09/23 14:29:00;;;;;;;;;15.75;15.75;;;;;;;;5036706;28;45558;-71
2022/09/23 14:31:26;;;;;;;;;13.50;12.25;;;;;;;;5036426;28;48221;-71
2022/09/23 14:33:51;;;;;;;;;11.50;11.50;;;;;;;;5054800;28;45477;-72
2022/09/23 14:39:10;;;;;;;;;12.00;12.00;;;;;;;;5054939;28;45637;-72
2022/09/23 14:41:37;;;;;;;;;10.25;10.25;;;;;;;;5054406;28;46805;-71
2022/09/23 14:44:03;;;;;;;;;10.00;10.00;;;;;;;;5035870;28;45412;-74
2022/09/23 14:46:31;;;;;;;;;14.00;14.00;;;;;;;;5056618;28;45394;-72